Monday, December 10, 2018, 9:22 PM EST
Back to Local

KSNC, Chester, Chester Airport

Location: Chester, CT, United States Lat: 41.384
Local Time: 9:22 PM EST ( 2:22 GMT) Lon: -72.506
Time Zone: US/Eastern Elev: 416 ft

Show me the last for .
Show Decoded

2018-12-10 20:55 METAR KSNC 110155Z AUTO 35004KT 10SM CLR M02/M09 A3014 RMK AO2 =
2018-12-10 20:35 METAR KSNC 110135Z AUTO 36004KT 10SM CLR M02/M09 A3014 RMK AO2 =
2018-12-10 20:15 METAR KSNC 110115Z AUTO 01006KT 10SM CLR M02/M09 A3014 RMK AO2 =
2018-12-10 19:55 METAR KSNC 110055Z AUTO 00000KT 10SM CLR M02/M09 A3015 RMK AO2 =
2018-12-10 19:35 METAR KSNC 110035Z AUTO 01004KT 10SM CLR M02/M09 A3014 RMK AO2 =
2018-12-10 19:15 METAR KSNC 110015Z AUTO 36004KT 10SM CLR M01/M09 A3014 RMK AO2 =
2018-12-10 18:55 METAR KSNC 102355Z AUTO VRB03KT 10SM CLR M01/M09 A3014 RMK AO2 =
2018-12-10 18:35 METAR KSNC 102335Z AUTO 36004KT 10SM CLR M01/M09 A3013 RMK AO2 =
2018-12-10 18:15 METAR KSNC 102315Z AUTO 00000KT 10SM CLR M02/M09 A3012 RMK AO2 =
2018-12-10 17:55 METAR KSNC 102255Z AUTO 00000KT 10SM CLR M02/M09 A3012 RMK AO2 =
2018-12-10 17:35 METAR KSNC 102235Z AUTO 00000KT 10SM CLR M01/M09 A3011 RMK AO2 =
2018-12-10 17:15 METAR KSNC 102215Z AUTO 35003KT 10SM CLR M01/M09 A3011 RMK AO2 =
2018-12-10 16:55 METAR KSNC 102155Z AUTO 00000KT 10SM CLR 00/M10 A3010 RMK AO2 =
2018-12-10 16:35 METAR KSNC 102135Z AUTO 00000KT 10SM CLR 00/M10 A3010 RMK AO2 =
2018-12-10 16:15 METAR KSNC 102115Z AUTO VRB03KT 10SM CLR 01/M10 A3010 RMK AO2 =
2018-12-10 15:55 METAR KSNC 102055Z AUTO VRB05KT 10SM CLR 02/M10 A3009 RMK AO2 =
2018-12-10 15:35 METAR KSNC 102035Z AUTO VRB06KT 10SM CLR 03/M10 A3009 RMK AO2 =
2018-12-10 15:15 METAR KSNC 102015Z AUTO 33008KT 10SM CLR 03/M10 A3008 RMK AO2 =
2018-12-10 14:55 METAR KSNC 101955Z AUTO 35006G13KT 10SM CLR 03/M10 A3008 RMK AO2 =
2018-12-10 14:35 METAR KSNC 101935Z AUTO 33009KT 10SM CLR 03/M09 A3008 RMK AO2 =
2018-12-10 14:15 METAR KSNC 101915Z AUTO VRB06G12KT 10SM CLR 03/M09 A3008 RMK AO2 =
2018-12-10 13:55 METAR KSNC 101855Z AUTO 03007G13KT 340V060 10SM CLR 03/M09 A3008 RMK AO2 =
2018-12-10 13:35 METAR KSNC 101835Z AUTO 01010KT 10SM CLR 03/M09 A3008 RMK AO2 =
2018-12-10 13:15 METAR KSNC 101815Z AUTO 03007KT 10SM CLR 03/M09 A3007 RMK AO2 =
2018-12-10 12:55 METAR KSNC 101755Z AUTO 36008KT 10SM CLR 03/M09 A3008 RMK AO2 =
2018-12-10 12:35 METAR KSNC 101735Z AUTO 35009G15KT 10SM CLR 02/M09 A3008 RMK AO2 =
2018-12-10 12:15 METAR KSNC 101715Z AUTO 33008KT 310V020 10SM CLR 02/M09 A3008 RMK AO2 =
2018-12-10 11:55 METAR KSNC 101655Z AUTO 34010G16KT 10SM CLR 02/M09 A3008 RMK AO2 =
2018-12-10 11:35 METAR KSNC 101635Z AUTO 34011G18KT 10SM CLR 02/M09 A3008 RMK AO2 =
2018-12-10 11:15 METAR KSNC 101615Z AUTO 35008G16KT 320V020 10SM CLR 02/M09 A3009 RMK AO2 =
2018-12-10 10:55 METAR KSNC 101555Z AUTO 02007G14KT 10SM CLR 02/M09 A3009 RMK AO2 =
2018-12-10 10:35 METAR KSNC 101535Z AUTO 04007G13KT 10SM CLR 02/M09 A3010 RMK AO2 =
2018-12-10 10:15 METAR KSNC 101515Z AUTO 02010KT 10SM CLR 01/M08 A3011 RMK AO2 =
2018-12-10 09:55 METAR KSNC 101455Z AUTO 03009KT 10SM CLR 01/M08 A3011 RMK AO2 =
2018-12-10 09:35 METAR KSNC 101435Z AUTO 02007G14KT 10SM CLR 01/M08 A3011 RMK AO2 =
2018-12-10 09:15 METAR KSNC 101415Z AUTO VRB06KT 10SM CLR 00/M08 A3010 RMK AO2 =
2018-12-10 08:55 METAR KSNC 101355Z AUTO 35006KT 10SM CLR M01/M08 A3010 RMK AO2 =
2018-12-10 08:35 METAR KSNC 101335Z AUTO 35005KT 10SM CLR M02/M08 A3009 RMK AO2 =
2018-12-10 08:15 METAR KSNC 101315Z AUTO 33005KT 10SM CLR M03/M08 A3009 RMK AO2 =
2018-12-10 07:55 METAR KSNC 101255Z AUTO 34005KT 10SM CLR M03/M08 A3008 RMK AO2 =
2018-12-10 07:35 METAR KSNC 101235Z AUTO 34004KT 10SM CLR M04/M09 A3008 RMK AO2 =
2018-12-10 07:15 METAR KSNC 101215Z AUTO 33004KT 10SM CLR M04/M09 A3007 RMK AO2 =
2018-12-10 06:55 METAR KSNC 101155Z AUTO 34005KT 10SM CLR M04/M09 A3007 RMK AO2 =
2018-12-10 06:35 METAR KSNC 101135Z AUTO 35006KT 10SM CLR M04/M09 A3007 RMK AO2 =
2018-12-10 06:15 METAR KSNC 101115Z AUTO 35005KT 10SM CLR M04/M09 A3007 RMK AO2 =
2018-12-10 05:55 METAR KSNC 101055Z AUTO 35005KT 10SM CLR M04/M09 A3006 RMK AO2 =
2018-12-10 05:35 METAR KSNC 101035Z AUTO 00000KT 10SM CLR M04/M09 A3006 RMK AO2 =
2018-12-10 05:15 METAR KSNC 101015Z AUTO 35004KT 10SM CLR M04/M09 A3005 RMK AO2 =
2018-12-10 04:55 METAR KSNC 100955Z AUTO 35004KT 10SM CLR M04/M09 A3005 RMK AO2 =
2018-12-10 04:35 METAR KSNC 100935Z AUTO 35004KT 10SM CLR M04/M09 A3005 RMK AO2 =
2018-12-10 04:15 METAR KSNC 100915Z AUTO 36004KT 10SM CLR M04/M09 A3005 RMK AO2 =
2018-12-10 03:55 METAR KSNC 100855Z AUTO 36004KT 10SM CLR M04/M09 A3006 RMK AO2 =
2018-12-10 03:35 METAR KSNC 100835Z AUTO 35004KT 10SM CLR M03/M09 A3006 RMK AO2 =
2018-12-10 03:15 METAR KSNC 100815Z AUTO 01005KT 10SM CLR M03/M09 A3008 RMK AO2 =
2018-12-10 02:55 METAR KSNC 100755Z AUTO 36003KT 10SM CLR M03/M09 A3008 RMK AO2 =
2018-12-10 02:35 METAR KSNC 100735Z AUTO 35005KT 10SM CLR M03/M10 A3008 RMK AO2 =
2018-12-10 02:15 METAR KSNC 100715Z AUTO 34004KT 10SM CLR M03/M10 A3008 RMK AO2 =
2018-12-10 01:55 METAR KSNC 100655Z AUTO 36007KT 10SM CLR M03/M10 A3007 RMK AO2 =
2018-12-10 01:35 METAR KSNC 100635Z AUTO 35007KT 10SM CLR M03/M10 A3008 RMK AO2 =
2018-12-10 01:15 METAR KSNC 100615Z AUTO 34007KT 10SM CLR M03/M09 A3008 RMK AO2 =
2018-12-10 00:55 METAR KSNC 100555Z AUTO 34005KT 10SM CLR M03/M09 A3009 RMK AO2 =
2018-12-10 00:35 METAR KSNC 100535Z AUTO VRB04KT 10SM CLR M04/M09 A3009 RMK AO2 =
2018-12-10 00:15 METAR KSNC 100515Z AUTO 00000KT 10SM CLR M04/M09 A3009 RMK AO2 =
2018-12-09 23:55 METAR KSNC 100455Z AUTO 00000KT 10SM CLR M03/M09 A3011 RMK AO2 =
2018-12-09 23:35 METAR KSNC 100435Z AUTO 00000KT 10SM CLR M03/M09 A3012 RMK AO2 =
2018-12-09 23:15 METAR KSNC 100415Z AUTO 32003KT 10SM CLR M02/M09 A3013 RMK AO2 =
2018-12-09 22:55 METAR KSNC 100355Z AUTO 00000KT 10SM CLR M02/M08 A3015 RMK AO2 =
2018-12-09 22:35 METAR KSNC 100335Z AUTO 30003KT 10SM CLR M02/M08 A3016 RMK AO2 =
2018-12-09 22:15 METAR KSNC 100315Z AUTO VRB03KT 10SM CLR M01/M08 A3016 RMK AO2 =
2018-12-09 21:55 METAR KSNC 100255Z AUTO VRB03KT 10SM CLR M01/M08 A3016 RMK AO2 =
2018-12-09 21:35 METAR KSNC 100235Z AUTO 00000KT 10SM CLR M01/M08 A3016 RMK AO2 =

Support USWX by starting your Amazon purchase here.